createdAt,value
2023-04-07T00:00:26.841Z,4.70
2023-04-07T00:02:54.112Z,5.43
2023-04-07T00:05:21.013Z,4.68
2023-04-07T00:07:56.034Z,4.65
2023-04-07T00:10:23.852Z,5.25
2023-04-07T00:12:50.852Z,4.65
2023-04-07T00:15:17.814Z,4.30
2023-04-07T00:17:44.581Z,5.00
2023-04-07T00:20:12.021Z,5.03
2023-04-07T00:22:38.855Z,4.38
2023-04-07T00:25:06.317Z,4.97
2023-04-07T00:27:33.140Z,4.55
2023-04-07T00:29:59.921Z,4.70
2023-04-07T00:32:26.789Z,5.63
2023-04-07T00:34:53.556Z,4.68
2023-04-07T00:37:20.619Z,4.95
2023-04-07T00:39:47.453Z,5.05
2023-04-07T00:42:14.336Z,5.15
2023-04-07T00:44:41.346Z,6.82
2023-04-07T00:47:08.228Z,18.98
2023-04-07T00:49:36.671Z,7.80
2023-04-07T00:52:04.575Z,10.27
2023-04-07T00:54:31.434Z,7.82
2023-04-07T00:56:58.257Z,6.10
2023-04-07T00:59:25.825Z,5.97
2023-04-07T01:02:15.807Z,5.63
2023-04-07T01:05:26.351Z,5.18
2023-04-07T01:08:05.675Z,4.43
2023-04-07T01:10:51.546Z,4.95
2023-04-07T01:13:43.031Z,5.13
2023-04-07T01:16:15.546Z,5.20
2023-04-07T01:18:48.116Z,5.40
2023-04-07T01:21:17.371Z,5.00
2023-04-07T01:24:16.080Z,4.90
2023-04-07T01:26:43.516Z,4.60
2023-04-07T01:29:22.517Z,4.63
2023-04-07T01:31:51.218Z,4.38
2023-04-07T01:34:19.236Z,4.80
2023-04-07T01:36:47.036Z,5.00
2023-04-07T01:39:14.405Z,4.50
2023-04-07T01:41:43.106Z,4.07
2023-04-07T01:44:10.535Z,4.45
2023-04-07T01:46:37.457Z,4.85
2023-04-07T01:49:05.621Z,4.28
2023-04-07T01:51:33.833Z,4.47
2023-04-07T01:54:02.899Z,5.40
2023-04-07T01:56:29.780Z,4.95
2023-04-07T01:58:56.597Z,4.85
2023-04-07T02:01:23.490Z,5.22
2023-04-07T02:04:11.336Z,5.00
2023-04-07T02:06:50.054Z,5.20
2023-04-07T02:09:19.349Z,5.43
2023-04-07T02:11:46.435Z,5.38
2023-04-07T02:14:15.667Z,5.63
2023-04-07T02:16:43.504Z,4.70
2023-04-07T02:19:10.499Z,5.60
2023-04-07T02:21:39.877Z,5.00
2023-04-07T02:24:07.131Z,6.32
2023-04-07T02:26:36.155Z,5.57
2023-04-07T02:29:04.325Z,5.72
2023-04-07T02:31:31.314Z,5.82
2023-04-07T02:33:58.142Z,5.53
2023-04-07T02:36:24.975Z,6.38
2023-04-07T02:38:51.751Z,5.60
2023-04-07T02:41:18.619Z,5.40
2023-04-07T02:43:45.568Z,4.95
2023-04-07T02:46:13.705Z,4.93
2023-04-07T02:48:41.570Z,5.78
2023-04-07T02:51:08.341Z,4.85
2023-04-07T02:53:35.457Z,5.80
2023-04-07T02:56:02.319Z,6.15
2023-04-07T02:58:29.168Z,6.43
2023-04-07T03:00:56.037Z,5.65
2023-04-07T03:03:23.054Z,4.43
2023-04-07T03:05:49.976Z,5.25
2023-04-07T03:08:16.733Z,5.20
2023-04-07T03:10:44.028Z,5.47
2023-04-07T03:13:12.922Z,6.53
2023-04-07T03:15:40.066Z,5.90
2023-04-07T03:18:07.020Z,6.32
2023-04-07T03:20:33.860Z,6.18
2023-04-07T03:23:00.625Z,5.22
2023-04-07T03:25:27.622Z,6.07
2023-04-07T03:27:54.417Z,5.88
2023-04-07T03:30:21.809Z,6.65
2023-04-07T03:32:48.633Z,7.07
2023-04-07T03:35:15.534Z,6.75
2023-04-07T03:37:42.408Z,6.00
2023-04-07T03:40:09.708Z,6.85
2023-04-07T03:42:36.525Z,6.13
2023-04-07T03:45:03.388Z,6.13
2023-04-07T03:47:30.493Z,6.10
2023-04-07T03:49:57.470Z,5.93
2023-04-07T03:52:24.287Z,6.07
2023-04-07T03:54:51.253Z,6.55
2023-04-07T03:57:18.040Z,6.82
2023-04-07T03:59:44.856Z,5.72
2023-04-07T04:02:12.107Z,5.72
2023-04-07T04:04:39.082Z,5.90
2023-04-07T04:07:05.878Z,5.93
2023-04-07T04:09:32.657Z,6.32
2023-04-07T04:11:59.385Z,6.10
2023-04-07T04:14:26.307Z,5.85
2023-04-07T04:16:53.942Z,5.50
2023-04-07T04:19:20.955Z,5.95
2023-04-07T04:21:47.782Z,6.10
2023-04-07T04:24:14.552Z,6.07
2023-04-07T04:26:41.464Z,6.53
2023-04-07T04:29:08.207Z,6.70
2023-04-07T04:31:35.015Z,5.97
2023-04-07T04:34:01.856Z,6.15
2023-04-07T04:36:28.640Z,6.30
2023-04-07T04:38:55.472Z,6.60
2023-04-07T04:41:22.237Z,6.82
2023-04-07T04:43:49.005Z,6.95
2023-04-07T04:46:15.759Z,7.45
2023-04-07T04:48:42.539Z,6.60
2023-04-07T04:51:09.377Z,6.28
2023-04-07T04:53:36.148Z,6.97
2023-04-07T04:56:02.986Z,6.47
2023-04-07T04:58:29.739Z,6.22
2023-04-07T05:01:00.485Z,6.60
2023-04-07T05:03:29.301Z,6.63
2023-04-07T05:05:56.261Z,5.65
2023-04-07T05:08:23.145Z,6.57
2023-04-07T05:10:49.981Z,6.20
2023-04-07T05:13:16.845Z,6.65
2023-04-07T05:15:43.742Z,6.35
2023-04-07T05:18:10.536Z,5.95
2023-04-07T05:20:37.365Z,6.50
2023-04-07T05:23:04.529Z,6.18
2023-04-07T05:25:31.517Z,7.38
2023-04-07T05:27:59.849Z,6.97
2023-04-07T05:30:26.683Z,7.50
2023-04-07T05:32:54.138Z,5.90
2023-04-07T05:35:21.125Z,6.38
2023-04-07T05:37:47.866Z,5.55
2023-04-07T05:40:14.720Z,6.18
2023-04-07T05:42:41.945Z,6.10
2023-04-07T05:45:10.388Z,5.95
2023-04-07T05:47:37.200Z,6.18
2023-04-07T05:50:04.243Z,6.35
2023-04-07T05:52:31.481Z,7.95
2023-04-07T05:54:58.347Z,7.53
2023-04-07T05:57:27.478Z,7.40
2023-04-07T05:59:54.512Z,7.97
2023-04-07T06:02:21.444Z,10.65
2023-04-07T06:04:48.257Z,14.77
2023-04-07T06:07:15.120Z,25.33
2023-04-07T06:09:42.737Z,22.83
2023-04-07T06:12:10.816Z,16.02
2023-04-07T06:14:37.760Z,19.05
2023-04-07T06:17:04.610Z,21.27
2023-04-07T06:19:32.694Z,21.77
2023-04-07T06:21:59.534Z,29.65
2023-04-07T06:24:26.290Z,17.98
2023-04-07T06:26:53.278Z,16.40
2023-04-07T06:29:20.647Z,27.77
2023-04-07T06:31:47.410Z,13.95
2023-04-07T06:34:14.159Z,12.85
2023-04-07T06:36:41.342Z,11.70
2023-04-07T06:39:08.136Z,12.50
2023-04-07T06:41:34.895Z,8.85
2023-04-07T06:44:01.643Z,8.57
2023-04-07T06:46:28.598Z,8.35
2023-04-07T06:48:55.524Z,9.02
2023-04-07T06:51:22.299Z,8.85
2023-04-07T06:53:49.298Z,7.85
2023-04-07T06:56:16.301Z,8.30
2023-04-07T06:58:43.158Z,7.28
2023-04-07T07:01:10.132Z,8.13
2023-04-07T07:03:37.101Z,7.65
2023-04-07T07:06:04.093Z,7.88
2023-04-07T07:08:31.132Z,7.72
2023-04-07T07:10:58.032Z,7.85
2023-04-07T07:13:26.612Z,7.57
2023-04-07T07:15:53.791Z,7.75
2023-04-07T07:18:20.837Z,7.95
2023-04-07T07:20:47.708Z,7.72
2023-04-07T07:23:14.618Z,8.55
2023-04-07T07:25:41.664Z,7.53
2023-04-07T07:28:09.690Z,7.85
2023-04-07T07:30:36.546Z,7.40
2023-04-07T07:33:03.632Z,8.15
2023-04-07T07:35:32.723Z,7.03
2023-04-07T07:37:59.554Z,6.35
2023-04-07T07:40:26.404Z,5.95
2023-04-07T07:42:53.226Z,6.70
2023-04-07T07:45:20.123Z,5.88
2023-04-07T07:47:47.046Z,6.30
2023-04-07T07:50:13.876Z,6.35
2023-04-07T07:52:40.873Z,5.47
2023-04-07T07:55:08.104Z,6.13
2023-04-07T07:57:35.086Z,7.68
2023-04-07T08:00:02.167Z,5.90
2023-04-07T08:02:32.689Z,6.70
2023-04-07T08:05:00.534Z,6.45
2023-04-07T08:07:27.466Z,6.90
2023-04-07T08:09:54.301Z,7.50
2023-04-07T08:12:21.547Z,9.50
2023-04-07T08:14:49.414Z,7.75
2023-04-07T08:17:17.589Z,7.93
2023-04-07T08:19:44.488Z,8.35
2023-04-07T08:22:11.269Z,7.57
2023-04-07T08:24:38.014Z,8.57
2023-04-07T08:27:04.817Z,7.50
2023-04-07T08:29:32.422Z,7.22
2023-04-07T08:31:59.310Z,8.02
2023-04-07T08:34:26.512Z,7.00
2023-04-07T08:36:53.234Z,6.82
2023-04-07T08:39:20.021Z,7.88
2023-04-07T08:41:48.972Z,6.95
2023-04-07T08:44:16.597Z,7.00
2023-04-07T08:46:43.988Z,7.13
2023-04-07T08:49:14.114Z,6.97
2023-04-07T08:51:49.016Z,6.90
2023-04-07T08:54:19.087Z,6.88
2023-04-07T08:56:46.382Z,7.05
2023-04-07T08:59:14.895Z,7.55
2023-04-07T09:01:42.225Z,7.82
2023-04-07T09:04:10.910Z,7.90
2023-04-07T09:06:38.322Z,7.43
2023-04-07T09:09:08.360Z,7.65
2023-04-07T09:11:40.743Z,7.47
2023-04-07T09:14:07.946Z,6.75
2023-04-07T09:16:35.565Z,7.38
2023-04-07T09:19:02.467Z,6.93
2023-04-07T09:21:49.012Z,7.07
2023-04-07T09:24:27.377Z,6.65
2023-04-07T09:27:17.869Z,7.07
2023-04-07T09:29:46.900Z,6.40
2023-04-07T09:32:36.063Z,6.40
2023-04-07T09:35:02.852Z,6.22
2023-04-07T09:37:29.666Z,6.88
2023-04-07T09:39:56.418Z,6.43
2023-04-07T09:42:23.331Z,6.20
2023-04-07T09:44:50.303Z,6.32
2023-04-07T09:47:18.017Z,6.43
2023-04-07T09:49:53.629Z,7.00
2023-04-07T09:52:25.505Z,7.10
2023-04-07T09:57:21.189Z,6.85
2023-04-07T09:59:48.882Z,7.03
2023-04-07T10:02:16.218Z,6.47
2023-04-07T10:04:43.903Z,6.93
2023-04-07T10:07:10.715Z,6.70
2023-04-07T10:09:37.584Z,6.70
2023-04-07T10:12:06.611Z,6.45
2023-04-07T10:14:35.602Z,6.72
2023-04-07T10:17:04.209Z,6.20
2023-04-07T10:19:36.054Z,6.55
2023-04-07T10:22:06.197Z,6.05
2023-04-07T10:24:47.184Z,6.18
2023-04-07T10:27:24.138Z,6.35
2023-04-07T10:29:52.791Z,6.07
2023-04-07T10:32:19.935Z,6.47
2023-04-07T10:34:55.925Z,8.18
2023-04-07T10:37:24.149Z,8.23
2023-04-07T10:40:11.856Z,5.82
2023-04-07T10:42:41.503Z,5.95
2023-04-07T10:45:12.946Z,6.80
2023-04-07T10:47:58.328Z,5.57
2023-04-07T10:50:25.885Z,5.72
2023-04-07T10:53:07.247Z,6.13
2023-04-07T10:55:41.738Z,6.18
2023-04-07T10:58:16.579Z,5.97
2023-04-07T11:01:04.680Z,5.90
2023-04-07T11:03:34.718Z,5.70
2023-04-07T11:06:12.770Z,5.95
2023-04-07T11:08:46.746Z,5.70
2023-04-07T11:11:16.627Z,6.28
2023-04-07T11:13:49.312Z,6.00
2023-04-07T11:16:19.067Z,5.82
2023-04-07T11:18:50.050Z,6.60
2023-04-07T11:21:20.174Z,6.80
2023-04-07T11:23:48.009Z,6.60
2023-04-07T11:26:16.095Z,6.28
2023-04-07T11:28:52.486Z,6.20
2023-04-07T11:31:26.221Z,5.68
2023-04-07T11:33:58.986Z,5.72
2023-04-07T11:36:34.106Z,6.38
2023-04-07T11:39:02.464Z,6.32
2023-04-07T11:41:31.224Z,5.93
2023-04-07T11:44:11.694Z,6.35
2023-04-07T11:46:56.540Z,5.65
2023-04-07T11:49:25.088Z,7.05
2023-04-07T11:52:18.282Z,5.93
2023-04-07T11:54:47.243Z,5.80
2023-04-07T11:57:14.568Z,5.88
2023-04-07T11:59:41.898Z,6.10
2023-04-07T12:02:09.641Z,5.53
2023-04-07T12:04:39.964Z,5.28
2023-04-07T12:07:11.707Z,5.80
2023-04-07T12:09:38.957Z,5.68
2023-04-07T12:12:07.927Z,5.60
2023-04-07T12:14:36.088Z,6.43
2023-04-07T12:17:03.929Z,5.60
2023-04-07T12:19:39.704Z,5.72
2023-04-07T12:22:06.627Z,5.40
2023-04-07T12:24:33.390Z,5.30
2023-04-07T12:27:00.390Z,5.75
2023-04-07T12:29:27.955Z,5.32
2023-04-07T12:31:54.773Z,5.10
2023-04-07T12:34:21.666Z,5.30
2023-04-07T12:36:48.671Z,5.53
2023-04-07T12:39:16.109Z,5.20
2023-04-07T12:41:44.153Z,5.03
2023-04-07T12:44:11.793Z,5.18
2023-04-07T12:46:38.582Z,5.55
2023-04-07T12:49:05.835Z,5.28
2023-04-07T12:51:33.800Z,5.57
2023-04-07T12:54:03.617Z,7.00
2023-04-07T12:56:30.701Z,7.25
2023-04-07T12:58:57.489Z,6.95
2023-04-07T13:01:24.403Z,7.28
2023-04-07T13:03:51.863Z,6.97
2023-04-07T13:06:19.440Z,7.10
2023-04-07T13:08:46.264Z,7.40
2023-04-07T13:11:13.148Z,7.05
2023-04-07T13:13:39.953Z,6.95
2023-04-07T13:16:06.865Z,7.50
2023-04-07T13:18:33.671Z,7.07
2023-04-07T13:21:33.729Z,7.38
2023-04-07T13:23:48.622Z,7.22
2023-04-07T13:26:15.501Z,7.13
2023-04-07T13:28:45.866Z,7.82
2023-04-07T13:31:16.083Z,7.32
2023-04-07T13:33:43.231Z,7.40
2023-04-07T13:36:10.350Z,6.22
2023-04-07T13:38:37.326Z,7.63
2023-04-07T13:41:04.194Z,35.65
2023-04-07T13:43:31.028Z,9.93
2023-04-07T13:45:57.856Z,7.60
2023-04-07T13:48:24.821Z,8.27
2023-04-07T13:50:51.616Z,7.55
2023-04-07T13:53:19.228Z,6.90
2023-04-07T13:55:46.419Z,8.00
2023-04-07T13:58:13.240Z,8.07
2023-04-07T14:00:40.416Z,7.25
2023-04-07T14:03:08.233Z,7.20
2023-04-07T14:05:36.010Z,7.53
2023-04-07T14:08:02.797Z,7.55
2023-04-07T14:10:29.575Z,7.65
2023-04-07T14:12:56.366Z,8.15
2023-04-07T14:15:23.297Z,7.53
2023-04-07T14:17:50.103Z,7.63
2023-04-07T14:20:17.021Z,7.72
2023-04-07T14:22:44.531Z,7.70
2023-04-07T14:25:11.823Z,7.93
2023-04-07T14:27:38.592Z,7.68
2023-04-07T14:30:06.045Z,7.50
2023-04-07T14:32:34.434Z,8.05
2023-04-07T14:35:01.760Z,8.07
2023-04-07T14:37:29.063Z,7.78
2023-04-07T14:42:26.075Z,7.40
2023-04-07T14:44:53.219Z,8.60
2023-04-07T14:47:20.249Z,7.47
2023-04-07T14:49:47.476Z,7.53
2023-04-07T14:52:14.678Z,8.38
2023-04-07T14:54:41.528Z,7.68
2023-04-07T14:57:08.300Z,7.93
2023-04-07T14:59:35.203Z,7.68
2023-04-07T15:02:02.145Z,7.63
2023-04-07T15:04:29.086Z,8.07
2023-04-07T15:06:56.280Z,8.13
2023-04-07T15:09:23.052Z,8.43
2023-04-07T15:11:49.826Z,7.82
2023-04-07T15:14:16.661Z,8.30
2023-04-07T15:16:44.073Z,8.73
2023-04-07T15:19:10.886Z,8.80
2023-04-07T15:21:37.650Z,8.52
2023-04-07T15:24:04.442Z,8.80
2023-04-07T15:26:31.247Z,9.93
2023-04-07T15:28:58.030Z,10.35
2023-04-07T15:31:27.129Z,10.40
2023-04-07T15:33:54.258Z,10.45
2023-04-07T15:36:21.035Z,11.07
2023-04-07T15:38:47.858Z,10.95
2023-04-07T15:41:18.671Z,9.95
2023-04-07T15:43:45.560Z,11.32
2023-04-07T15:46:12.386Z,11.45
2023-04-07T15:48:39.211Z,11.40
2023-04-07T15:51:06.044Z,11.25
2023-04-07T15:53:32.873Z,10.52
2023-04-07T15:55:59.658Z,11.80
2023-04-07T15:58:26.574Z,12.48
2023-04-07T16:00:53.468Z,12.50
2023-04-07T16:03:20.614Z,12.88
2023-04-07T16:05:47.658Z,16.35
2023-04-07T16:08:14.527Z,13.32
2023-04-07T16:10:42.263Z,12.02
2023-04-07T16:13:09.799Z,13.10
2023-04-07T16:15:40.111Z,12.82
2023-04-07T16:18:10.829Z,11.88
2023-04-07T16:20:37.660Z,12.45
2023-04-07T16:23:04.496Z,13.93
2023-04-07T16:25:31.377Z,12.55
2023-04-07T16:27:58.209Z,13.05
2023-04-07T16:30:25.421Z,12.80
2023-04-07T16:32:52.565Z,10.50
2023-04-07T16:35:19.561Z,13.50
2023-04-07T16:37:49.730Z,12.98
2023-04-07T16:40:16.719Z,13.20
2023-04-07T16:42:43.557Z,12.32
2023-04-07T16:45:11.202Z,12.68
2023-04-07T16:47:38.724Z,13.13
2023-04-07T16:50:05.993Z,12.50
2023-04-07T16:52:32.833Z,13.73
2023-04-07T16:55:00.080Z,13.20
2023-04-07T16:57:26.860Z,12.95
2023-04-07T16:59:53.792Z,13.55
2023-04-07T17:02:20.817Z,13.73
2023-04-07T17:04:47.829Z,12.63
2023-04-07T17:07:14.710Z,14.05
2023-04-07T17:09:41.525Z,12.85
2023-04-07T17:12:08.404Z,13.48
2023-04-07T17:14:35.547Z,14.40
2023-04-07T17:17:02.430Z,14.05
2023-04-07T17:19:29.595Z,12.80
2023-04-07T17:21:56.631Z,12.43
2023-04-07T17:24:23.842Z,13.60
2023-04-07T17:26:50.889Z,13.18
2023-04-07T17:29:18.182Z,13.40
2023-04-07T17:31:45.006Z,13.90
2023-04-07T17:34:12.018Z,13.57
2023-04-07T17:36:39.241Z,14.05
2023-04-07T17:39:06.058Z,13.23
2023-04-07T17:41:34.725Z,13.98
2023-04-07T17:44:02.093Z,13.80
2023-04-07T17:46:29.172Z,14.10
2023-04-07T17:48:59.019Z,14.27
2023-04-07T17:51:27.023Z,13.75
2023-04-07T17:53:54.340Z,15.02
2023-04-07T17:56:21.653Z,18.40
2023-04-07T17:58:48.626Z,17.60
2023-04-07T18:01:16.886Z,16.73
2023-04-07T18:03:44.444Z,16.85
2023-04-07T18:06:16.468Z,15.07
2023-04-07T18:08:46.337Z,13.02
2023-04-07T18:11:13.515Z,12.98
2023-04-07T18:13:40.407Z,13.30
2023-04-07T18:16:11.844Z,13.38
2023-04-07T18:18:38.927Z,14.60
2023-04-07T18:21:08.966Z,13.40
2023-04-07T18:23:35.966Z,13.27
2023-04-07T18:26:04.876Z,14.70
2023-04-07T18:28:31.814Z,14.27
2023-04-07T18:31:07.722Z,12.57
2023-04-07T18:33:36.332Z,13.32
2023-04-07T18:36:07.173Z,14.05
2023-04-07T18:38:35.457Z,17.40
2023-04-07T18:41:02.731Z,12.68
2023-04-07T18:43:30.247Z,13.48
2023-04-07T18:45:57.086Z,12.88
2023-04-07T18:48:24.000Z,12.93
2023-04-07T18:50:52.788Z,15.57
2023-04-07T18:53:24.328Z,13.13
2023-04-07T18:55:51.952Z,14.40
2023-04-07T18:58:20.071Z,13.63
2023-04-07T19:00:49.860Z,13.38
2023-04-07T19:03:17.062Z,13.25
2023-04-07T19:05:47.204Z,13.98
2023-04-07T19:08:15.890Z,18.50
2023-04-07T19:10:43.569Z,13.90
2023-04-07T19:13:10.360Z,14.40
2023-04-07T19:15:39.328Z,14.20
2023-04-07T19:18:07.949Z,13.63
2023-04-07T19:20:34.809Z,14.60
2023-04-07T19:23:01.922Z,15.27
2023-04-07T19:25:29.829Z,14.50
2023-04-07T19:27:57.565Z,13.65
2023-04-07T19:30:24.374Z,13.55
2023-04-07T19:32:51.332Z,13.55
2023-04-07T19:35:18.353Z,14.20
2023-04-07T19:37:47.414Z,14.18
2023-04-07T19:40:15.069Z,14.68
2023-04-07T19:42:42.210Z,13.95
2023-04-07T19:45:09.579Z,13.80
2023-04-07T19:47:36.799Z,14.88
2023-04-07T19:50:05.191Z,17.02
2023-04-07T19:52:32.640Z,14.55
2023-04-07T19:55:01.036Z,16.40
2023-04-07T19:57:28.533Z,15.00
2023-04-07T19:59:55.376Z,14.63
2023-04-07T20:02:22.246Z,13.98
2023-04-07T20:04:49.212Z,14.57
2023-04-07T20:07:16.179Z,13.90
2023-04-07T20:09:43.130Z,14.18
2023-04-07T20:12:10.201Z,14.65
2023-04-07T20:14:37.784Z,14.40
2023-04-07T20:17:04.749Z,12.85
2023-04-07T20:19:31.634Z,13.68
2023-04-07T20:21:58.436Z,13.75
2023-04-07T20:24:25.792Z,15.95
2023-04-07T20:26:52.677Z,14.10
2023-04-07T20:29:21.102Z,13.52
2023-04-07T20:31:49.036Z,14.20
2023-04-07T20:34:16.404Z,13.60
2023-04-07T20:36:43.239Z,14.18
2023-04-07T20:39:10.048Z,13.68
2023-04-07T20:41:37.279Z,13.95
2023-04-07T20:44:04.358Z,14.82
2023-04-07T20:46:33.483Z,14.55
2023-04-07T20:49:00.834Z,15.57
2023-04-07T20:51:29.006Z,15.20
2023-04-07T20:53:55.869Z,15.50
2023-04-07T20:56:23.779Z,15.93
2023-04-07T20:58:50.945Z,15.13
2023-04-07T21:01:18.001Z,14.95
2023-04-07T21:03:45.098Z,14.75
2023-04-07T21:06:12.076Z,14.88
2023-04-07T21:08:39.466Z,15.23
2023-04-07T21:11:06.264Z,15.77
2023-04-07T21:13:33.028Z,14.82
2023-04-07T21:16:01.349Z,15.20
2023-04-07T21:18:28.358Z,14.02
2023-04-07T21:20:57.725Z,14.90
2023-04-07T21:23:24.594Z,13.88
2023-04-07T21:25:51.434Z,15.00
2023-04-07T21:28:18.243Z,14.98
2023-04-07T21:30:45.186Z,15.90
2023-04-07T21:33:13.623Z,15.55
2023-04-07T21:35:40.614Z,15.30
2023-04-07T21:38:07.485Z,15.23
2023-04-07T21:40:34.232Z,14.30
2023-04-07T21:43:01.802Z,14.20
2023-04-07T21:45:29.709Z,15.60
2023-04-07T21:47:56.747Z,15.88
2023-04-07T21:50:24.154Z,16.17
2023-04-07T21:52:51.793Z,15.13
2023-04-07T21:55:18.882Z,15.63
2023-04-07T21:57:45.881Z,14.55
2023-04-07T22:00:14.099Z,14.75
2023-04-07T22:02:41.499Z,16.40
2023-04-07T22:05:08.940Z,15.60
2023-04-07T22:07:36.227Z,15.85
2023-04-07T22:10:03.528Z,14.68
2023-04-07T22:12:30.381Z,15.10
2023-04-07T22:14:57.166Z,15.00
2023-04-07T22:17:23.936Z,15.75
2023-04-07T22:19:50.812Z,15.05
2023-04-07T22:22:17.663Z,15.43
2023-04-07T22:24:44.485Z,15.48
2023-04-07T22:27:11.339Z,15.98
2023-04-07T22:29:38.118Z,14.50
2023-04-07T22:32:05.191Z,14.85
2023-04-07T22:34:31.970Z,15.20
2023-04-07T22:36:58.996Z,15.35
2023-04-07T22:39:26.843Z,14.80
2023-04-07T22:41:53.640Z,14.85
2023-04-07T22:44:20.847Z,15.48
2023-04-07T22:46:47.801Z,15.43
2023-04-07T22:49:14.704Z,14.63
2023-04-07T22:51:41.613Z,14.63
2023-04-07T22:54:08.410Z,15.73
2023-04-07T22:56:35.373Z,16.58
2023-04-07T22:59:05.684Z,14.98
2023-04-07T23:01:33.177Z,15.85
2023-04-07T23:04:00.290Z,16.65
2023-04-07T23:06:28.841Z,17.35
2023-04-07T23:08:56.563Z,16.17
2023-04-07T23:11:23.729Z,23.60
2023-04-07T23:13:51.288Z,15.25
2023-04-07T23:16:18.228Z,14.93
2023-04-07T23:18:45.031Z,15.70
2023-04-07T23:21:12.431Z,14.75
2023-04-07T23:23:39.627Z,16.38
2023-04-07T23:26:09.074Z,16.88
2023-04-07T23:28:35.945Z,15.98
2023-04-07T23:31:02.819Z,16.52
2023-04-07T23:33:31.670Z,15.48
2023-04-07T23:35:58.998Z,15.35
2023-04-07T23:38:26.299Z,15.32
2023-04-07T23:40:53.469Z,16.02
2023-04-07T23:43:20.329Z,16.50
2023-04-07T23:45:47.203Z,15.80
2023-04-07T23:48:14.999Z,16.17
2023-04-07T23:50:41.769Z,17.13
2023-04-07T23:53:08.661Z,17.10
2023-04-07T23:55:35.475Z,17.27
2023-04-07T23:58:02.349Z,16.85
